sensor_id;sensor_type;location;lat;lon;timestamp;pressure;altitude;pressure_sealevel;temperature;humidity
30875;BME280;17581;43.222;27.924;2022-08-01T00:00:33;100144.66;;;22.86;95.12
30875;BME280;17581;43.222;27.924;2022-08-01T00:02:58;100139.19;;;22.86;95.00
30875;BME280;17581;43.222;27.924;2022-08-01T00:05:24;100140.44;;;22.90;94.95
30875;BME280;17581;43.222;27.924;2022-08-01T00:07:49;100133.28;;;22.83;94.70
30875;BME280;17581;43.222;27.924;2022-08-01T00:10:16;100134.53;;;22.87;94.52
30875;BME280;17581;43.222;27.924;2022-08-01T00:12:43;100120.44;;;22.76;94.57
30875;BME280;17581;43.222;27.924;2022-08-01T00:15:10;100135.38;;;22.87;94.34
30875;BME280;17581;43.222;27.924;2022-08-01T00:17:36;100144.63;;;22.99;94.19
30875;BME280;17581;43.222;27.924;2022-08-01T00:20:03;100121.00;;;22.92;94.21
30875;BME280;17581;43.222;27.924;2022-08-01T00:22:33;100135.53;;;22.99;94.48
30875;BME280;17581;43.222;27.924;2022-08-01T00:24:59;100136.16;;;23.01;94.43
30875;BME280;17581;43.222;27.924;2022-08-01T00:27:25;100132.13;;;23.10;94.57
30875;BME280;17581;43.222;27.924;2022-08-01T00:29:51;100115.91;;;23.02;93.32
30875;BME280;17581;43.222;27.924;2022-08-01T00:32:16;100116.78;;;22.96;93.25
30875;BME280;17581;43.222;27.924;2022-08-01T00:34:42;100096.16;;;22.87;92.89
30875;BME280;17581;43.222;27.924;2022-08-01T00:37:07;100092.31;;;22.88;93.09
30875;BME280;17581;43.222;27.924;2022-08-01T00:39:33;100109.16;;;22.98;92.66
30875;BME280;17581;43.222;27.924;2022-08-01T00:41:59;100097.78;;;22.94;92.87
30875;BME280;17581;43.222;27.924;2022-08-01T00:44:24;100112.53;;;23.00;92.63
30875;BME280;17581;43.222;27.924;2022-08-01T00:46:50;100103.47;;;22.99;93.05
30875;BME280;17581;43.222;27.924;2022-08-01T00:49:16;100108.13;;;22.99;92.87
30875;BME280;17581;43.222;27.924;2022-08-01T00:51:41;100121.81;;;23.05;92.73
30875;BME280;17581;43.222;27.924;2022-08-01T00:54:07;100098.63;;;22.95;92.39
30875;BME280;17581;43.222;27.924;2022-08-01T00:56:33;100098.22;;;22.91;92.47
30875;BME280;17581;43.222;27.924;2022-08-01T00:58:58;100126.03;;;23.01;92.41
30875;BME280;17581;43.222;27.924;2022-08-01T01:01:25;100113.81;;;22.91;92.85
30875;BME280;17581;43.222;27.924;2022-08-01T01:03:51;100105.41;;;22.86;91.89
30875;BME280;17581;43.222;27.924;2022-08-01T01:06:28;100127.31;;;22.99;91.25
30875;BME280;17581;43.222;27.924;2022-08-01T01:17:26;100102.50;;;22.81;91.40
30875;BME280;17581;43.222;27.924;2022-08-01T01:19:54;100093.88;;;22.77;91.60
30875;BME280;17581;43.222;27.924;2022-08-01T01:30:38;100103.16;;;22.69;90.98
30875;BME280;17581;43.222;27.924;2022-08-01T01:33:08;100098.34;;;22.65;91.05
30875;BME280;17581;43.222;27.924;2022-08-01T01:35:40;100105.03;;;22.75;91.00
30875;BME280;17581;43.222;27.924;2022-08-01T01:38:25;100113.06;;;22.70;90.57
30875;BME280;17581;43.222;27.924;2022-08-01T01:40:52;100085.22;;;22.60;90.31
30875;BME280;17581;43.222;27.924;2022-08-01T01:43:19;100092.41;;;22.61;89.34
30875;BME280;17581;43.222;27.924;2022-08-01T01:45:47;100102.94;;;22.64;89.33
30875;BME280;17581;43.222;27.924;2022-08-01T01:48:14;100096.00;;;22.62;87.93
30875;BME280;17581;43.222;27.924;2022-08-01T01:50:42;100083.16;;;22.49;86.82
30875;BME280;17581;43.222;27.924;2022-08-01T01:53:09;100087.78;;;22.49;86.34
30875;BME280;17581;43.222;27.924;2022-08-01T01:55:39;100103.19;;;22.56;85.80
30875;BME280;17581;43.222;27.924;2022-08-01T01:58:07;100094.97;;;22.43;83.87
30875;BME280;17581;43.222;27.924;2022-08-01T02:00:33;100091.63;;;22.35;82.39
30875;BME280;17581;43.222;27.924;2022-08-01T02:03:01;100114.78;;;22.39;80.39
30875;BME280;17581;43.222;27.924;2022-08-01T02:05:28;100110.41;;;22.31;79.13
30875;BME280;17581;43.222;27.924;2022-08-01T02:07:54;100098.16;;;22.27;75.48
30875;BME280;17581;43.222;27.924;2022-08-01T02:10:20;100103.88;;;22.19;73.58
30875;BME280;17581;43.222;27.924;2022-08-01T02:12:48;100113.16;;;22.18;72.98
30875;BME280;17581;43.222;27.924;2022-08-01T02:15:15;100108.09;;;22.08;72.13
30875;BME280;17581;43.222;27.924;2022-08-01T02:17:46;100101.81;;;22.01;70.04
30875;BME280;17581;43.222;27.924;2022-08-01T02:20:13;100113.59;;;21.95;71.58
30875;BME280;17581;43.222;27.924;2022-08-01T02:22:50;100111.44;;;21.84;72.33
30875;BME280;17581;43.222;27.924;2022-08-01T02:28:28;100108.06;;;21.49;70.04
30875;BME280;17581;43.222;27.924;2022-08-01T02:31:04;100115.59;;;21.34;70.36
30875;BME280;17581;43.222;27.924;2022-08-01T02:33:40;100110.50;;;21.18;70.37
30875;BME280;17581;43.222;27.924;2022-08-01T02:36:07;100081.97;;;20.93;69.65
30875;BME280;17581;43.222;27.924;2022-08-01T02:38:35;100109.13;;;21.01;68.94
30875;BME280;17581;43.222;27.924;2022-08-01T02:41:07;100099.41;;;20.92;68.05
30875;BME280;17581;43.222;27.924;2022-08-01T02:43:36;100096.47;;;20.87;68.57
30875;BME280;17581;43.222;27.924;2022-08-01T02:46:04;100106.16;;;20.96;68.48
30875;BME280;17581;43.222;27.924;2022-08-01T02:48:33;100119.00;;;20.95;68.39
30875;BME280;17581;43.222;27.924;2022-08-01T02:51:01;100102.75;;;20.81;68.73
30875;BME280;17581;43.222;27.924;2022-08-01T02:53:30;100108.84;;;20.83;68.75
30875;BME280;17581;43.222;27.924;2022-08-01T02:55:57;100120.44;;;20.85;68.67
30875;BME280;17581;43.222;27.924;2022-08-01T02:58:24;100115.81;;;20.85;68.80
30875;BME280;17581;43.222;27.924;2022-08-01T03:00:50;100123.44;;;20.96;67.71
30875;BME280;17581;43.222;27.924;2022-08-01T03:03:16;100105.28;;;20.89;67.24
30875;BME280;17581;43.222;27.924;2022-08-01T03:05:43;100107.59;;;20.79;68.26
30875;BME280;17581;43.222;27.924;2022-08-01T03:08:10;100120.03;;;20.88;68.21
30875;BME280;17581;43.222;27.924;2022-08-01T03:10:38;100108.22;;;20.81;68.32
30875;BME280;17581;43.222;27.924;2022-08-01T03:13:06;100106.91;;;20.77;67.25
30875;BME280;17581;43.222;27.924;2022-08-01T03:15:36;100124.44;;;20.89;67.37
30875;BME280;17581;43.222;27.924;2022-08-01T03:18:04;100130.31;;;20.86;67.23
30875;BME280;17581;43.222;27.924;2022-08-01T03:20:33;100134.91;;;20.79;67.47
30875;BME280;17581;43.222;27.924;2022-08-01T03:23:02;100123.75;;;20.80;67.22
30875;BME280;17581;43.222;27.924;2022-08-01T03:25:29;100123.72;;;20.74;67.34
30875;BME280;17581;43.222;27.924;2022-08-01T03:28:01;100120.78;;;20.69;67.84
30875;BME280;17581;43.222;27.924;2022-08-01T03:30:27;100120.69;;;20.55;67.83
30875;BME280;17581;43.222;27.924;2022-08-01T03:32:55;100137.97;;;20.62;67.53
30875;BME280;17581;43.222;27.924;2022-08-01T03:35:21;100127.03;;;20.62;66.78
30875;BME280;17581;43.222;27.924;2022-08-01T03:37:52;100123.00;;;20.58;66.51
30875;BME280;17581;43.222;27.924;2022-08-01T03:40:30;100130.81;;;20.61;66.74
30875;BME280;17581;43.222;27.924;2022-08-01T03:43:01;100121.16;;;20.66;66.17
30875;BME280;17581;43.222;27.924;2022-08-01T03:45:31;100122.03;;;20.66;65.97
30875;BME280;17581;43.222;27.924;2022-08-01T03:47:59;100119.50;;;20.71;65.54
30875;BME280;17581;43.222;27.924;2022-08-01T03:50:26;100119.97;;;20.75;65.48
30875;BME280;17581;43.222;27.924;2022-08-01T03:52:53;100117.84;;;20.70;65.56
30875;BME280;17581;43.222;27.924;2022-08-01T03:55:20;100095.53;;;20.67;65.21
30875;BME280;17581;43.222;27.924;2022-08-01T03:57:47;100090.94;;;20.67;65.32
30875;BME280;17581;43.222;27.924;2022-08-01T04:00:13;100103.41;;;20.89;64.17
30875;BME280;17581;43.222;27.924;2022-08-01T04:02:45;100094.34;;;20.89;63.12
30875;BME280;17581;43.222;27.924;2022-08-01T04:05:11;100099.41;;;20.92;63.11
30875;BME280;17581;43.222;27.924;2022-08-01T04:07:36;100105.31;;;20.95;62.58
30875;BME280;17581;43.222;27.924;2022-08-01T04:10:05;100102.00;;;21.00;62.39
30875;BME280;17581;43.222;27.924;2022-08-01T04:12:31;100088.72;;;20.97;61.40
30875;BME280;17581;43.222;27.924;2022-08-01T04:14:58;100092.75;;;21.07;60.32
30875;BME280;17581;43.222;27.924;2022-08-01T04:17:23;100096.59;;;21.20;60.38
30875;BME280;17581;43.222;27.924;2022-08-01T04:19:50;100093.88;;;21.26;59.86
30875;BME280;17581;43.222;27.924;2022-08-01T04:22:15;100079.81;;;21.36;58.48
30875;BME280;17581;43.222;27.924;2022-08-01T04:24:45;100084.88;;;21.45;58.55
30875;BME280;17581;43.222;27.924;2022-08-01T04:27:18;100069.69;;;21.30;59.33
30875;BME280;17581;43.222;27.924;2022-08-01T04:29:46;100095.00;;;21.51;58.72
30875;BME280;17581;43.222;27.924;2022-08-01T04:32:15;100103.41;;;21.56;58.96
30875;BME280;17581;43.222;27.924;2022-08-01T04:34:41;100099.66;;;21.64;58.64
30875;BME280;17581;43.222;27.924;2022-08-01T04:37:12;100097.75;;;21.64;57.90
30875;BME280;17581;43.222;27.924;2022-08-01T04:39:42;100092.47;;;21.69;58.04
30875;BME280;17581;43.222;27.924;2022-08-01T04:42:08;100112.69;;;21.82;57.96
30875;BME280;17581;43.222;27.924;2022-08-01T04:44:36;100087.88;;;21.77;57.73
30875;BME280;17581;43.222;27.924;2022-08-01T04:47:03;100097.56;;;21.86;57.53
30875;BME280;17581;43.222;27.924;2022-08-01T04:49:31;100097.59;;;21.92;57.63
30875;BME280;17581;43.222;27.924;2022-08-01T04:51:56;100101.81;;;22.01;57.76
30875;BME280;17581;43.222;27.924;2022-08-01T04:54:29;100095.66;;;22.06;57.44
30875;BME280;17581;43.222;27.924;2022-08-01T04:56:59;100091.47;;;22.16;56.78
30875;BME280;17581;43.222;27.924;2022-08-01T04:59:27;100083.00;;;22.11;57.18
30875;BME280;17581;43.222;27.924;2022-08-01T05:02:15;100090.81;;;22.21;57.18
30875;BME280;17581;43.222;27.924;2022-08-01T05:04:43;100095.00;;;22.30;57.44
30875;BME280;17581;43.222;27.924;2022-08-01T05:07:09;100070.78;;;22.20;56.64
30875;BME280;17581;43.222;27.924;2022-08-01T05:09:36;100090.97;;;22.39;56.64
30875;BME280;17581;43.222;27.924;2022-08-01T05:12:03;100096.25;;;22.47;56.28
30875;BME280;17581;43.222;27.924;2022-08-01T05:14:29;100089.47;;;22.56;55.76
30875;BME280;17581;43.222;27.924;2022-08-01T05:16:59;100087.34;;;22.58;55.46
30875;BME280;17581;43.222;27.924;2022-08-01T05:19:25;100093.69;;;22.65;55.74
30875;BME280;17581;43.222;27.924;2022-08-01T05:21:52;100094.50;;;22.72;54.47
30875;BME280;17581;43.222;27.924;2022-08-01T05:24:17;100097.63;;;22.83;54.27
30875;BME280;17581;43.222;27.924;2022-08-01T05:26:43;100091.09;;;22.84;53.75
30875;BME280;17581;43.222;27.924;2022-08-01T05:29:08;100094.88;;;22.89;53.75
30875;BME280;17581;43.222;27.924;2022-08-01T05:31:33;100086.34;;;23.04;53.33
30875;BME280;17581;43.222;27.924;2022-08-01T05:34:00;100102.97;;;23.09;53.28
30875;BME280;17581;43.222;27.924;2022-08-01T05:36:29;100105.94;;;23.14;53.06
30875;BME280;17581;43.222;27.924;2022-08-01T05:38:55;100098.94;;;23.18;53.10
30875;BME280;17581;43.222;27.924;2022-08-01T05:41:21;100103.13;;;23.27;52.47
30875;BME280;17581;43.222;27.924;2022-08-01T05:43:46;100099.28;;;23.35;52.58
30875;BME280;17581;43.222;27.924;2022-08-01T05:46:12;100092.94;;;23.41;53.08
30875;BME280;17581;43.222;27.924;2022-08-01T05:48:37;100098.38;;;23.47;53.40
30875;BME280;17581;43.222;27.924;2022-08-01T05:51:03;100094.13;;;23.51;52.96
30875;BME280;17581;43.222;27.924;2022-08-01T05:53:29;100099.56;;;23.58;52.60
30875;BME280;17581;43.222;27.924;2022-08-01T05:55:54;100092.13;;;23.65;52.28
30875;BME280;17581;43.222;27.924;2022-08-01T05:58:20;100096.88;;;23.76;51.90
30875;BME280;17581;43.222;27.924;2022-08-01T06:00:46;100085.69;;;23.77;51.49
30875;BME280;17581;43.222;27.924;2022-08-01T06:03:11;100075.25;;;23.86;51.36
30875;BME280;17581;43.222;27.924;2022-08-01T06:05:37;100077.81;;;23.88;50.75
30875;BME280;17581;43.222;27.924;2022-08-01T06:08:03;100080.25;;;23.96;50.97
30875;BME280;17581;43.222;27.924;2022-08-01T06:10:28;100083.41;;;23.99;51.29
30875;BME280;17581;43.222;27.924;2022-08-01T06:12:54;100079.97;;;24.04;50.38
30875;BME280;17581;43.222;27.924;2022-08-01T06:15:20;100075.94;;;24.06;49.43
30875;BME280;17581;43.222;27.924;2022-08-01T06:17:46;100068.75;;;24.05;49.39
30875;BME280;17581;43.222;27.924;2022-08-01T06:20:11;100075.44;;;24.16;48.89
30875;BME280;17581;43.222;27.924;2022-08-01T06:22:37;100070.56;;;24.18;48.67
30875;BME280;17581;43.222;27.924;2022-08-01T06:25:03;100068.59;;;24.25;47.97
30875;BME280;17581;43.222;27.924;2022-08-01T06:27:28;100065.84;;;24.25;47.31
30875;BME280;17581;43.222;27.924;2022-08-01T06:29:54;100069.75;;;24.35;47.47
30875;BME280;17581;43.222;27.924;2022-08-01T06:32:22;100078.38;;;24.39;46.71
30875;BME280;17581;43.222;27.924;2022-08-01T06:34:48;100068.16;;;24.46;46.60
30875;BME280;17581;43.222;27.924;2022-08-01T06:37:14;100056.53;;;24.44;46.42
30875;BME280;17581;43.222;27.924;2022-08-01T06:39:39;100062.56;;;24.53;46.24
30875;BME280;17581;43.222;27.924;2022-08-01T06:42:05;100056.00;;;24.54;46.06
30875;BME280;17581;43.222;27.924;2022-08-01T06:44:31;100062.97;;;24.56;46.13
30875;BME280;17581;43.222;27.924;2022-08-01T06:46:56;100062.03;;;24.62;46.35
30875;BME280;17581;43.222;27.924;2022-08-01T06:49:24;100067.91;;;24.66;46.68
30875;BME280;17581;43.222;27.924;2022-08-01T06:51:49;100060.06;;;24.69;45.96
30875;BME280;17581;43.222;27.924;2022-08-01T06:54:15;100061.28;;;24.73;45.67
30875;BME280;17581;43.222;27.924;2022-08-01T06:56:41;100058.25;;;24.81;46.25
30875;BME280;17581;43.222;27.924;2022-08-01T06:59:07;100046.78;;;24.84;45.82
30875;BME280;17581;43.222;27.924;2022-08-01T07:01:32;100052.13;;;24.98;45.95
30875;BME280;17581;43.222;27.924;2022-08-01T07:03:58;100060.88;;;25.06;46.10
30875;BME280;17581;43.222;27.924;2022-08-01T07:06:24;100053.13;;;25.15;45.28
30875;BME280;17581;43.222;27.924;2022-08-01T07:08:51;100051.34;;;25.20;45.47
30875;BME280;17581;43.222;27.924;2022-08-01T07:11:16;100054.59;;;25.29;44.97
30875;BME280;17581;43.222;27.924;2022-08-01T07:13:42;100039.94;;;25.35;44.47
30875;BME280;17581;43.222;27.924;2022-08-01T07:16:07;100037.53;;;25.38;44.50
30875;BME280;17581;43.222;27.924;2022-08-01T07:18:33;100046.31;;;25.47;43.83
30875;BME280;17581;43.222;27.924;2022-08-01T07:20:58;100051.97;;;25.52;43.74
30875;BME280;17581;43.222;27.924;2022-08-01T07:23:24;100051.03;;;25.58;43.71
30875;BME280;17581;43.222;27.924;2022-08-01T07:25:49;100044.47;;;25.59;43.52
30875;BME280;17581;43.222;27.924;2022-08-01T07:28:16;100029.47;;;25.55;43.40
30875;BME280;17581;43.222;27.924;2022-08-01T07:30:41;100065.31;;;25.78;43.25
30875;BME280;17581;43.222;27.924;2022-08-01T07:33:09;100048.28;;;25.81;43.34
30875;BME280;17581;43.222;27.924;2022-08-01T07:35:34;100067.97;;;25.96;43.40
30875;BME280;17581;43.222;27.924;2022-08-01T07:38:03;100072.19;;;26.11;43.33
30875;BME280;17581;43.222;27.924;2022-08-01T07:40:29;100068.94;;;26.14;42.25
30875;BME280;17581;43.222;27.924;2022-08-01T07:42:54;100062.03;;;26.23;42.15
30875;BME280;17581;43.222;27.924;2022-08-01T07:45:20;100070.50;;;26.33;41.64
30875;BME280;17581;43.222;27.924;2022-08-01T07:47:46;100069.91;;;26.42;41.80
30875;BME280;17581;43.222;27.924;2022-08-01T07:50:12;100067.03;;;26.49;41.02
30875;BME280;17581;43.222;27.924;2022-08-01T07:52:38;100066.53;;;26.52;41.10
30875;BME280;17581;43.222;27.924;2022-08-01T07:55:04;100065.81;;;26.57;41.15
30875;BME280;17581;43.222;27.924;2022-08-01T07:57:29;100073.50;;;26.66;40.78
30875;BME280;17581;43.222;27.924;2022-08-01T07:59:55;100068.66;;;26.73;40.34
30875;BME280;17581;43.222;27.924;2022-08-01T08:02:20;100073.69;;;26.76;40.52
30875;BME280;17581;43.222;27.924;2022-08-01T08:04:46;100057.25;;;26.70;40.67
30875;BME280;17581;43.222;27.924;2022-08-01T08:07:11;100069.25;;;26.87;40.53
30875;BME280;17581;43.222;27.924;2022-08-01T08:09:37;100066.72;;;26.85;40.17
30875;BME280;17581;43.222;27.924;2022-08-01T08:12:02;100065.25;;;26.94;39.67
30875;BME280;17581;43.222;27.924;2022-08-01T08:14:28;100071.34;;;27.08;40.02
30875;BME280;17581;43.222;27.924;2022-08-01T08:16:54;100070.38;;;27.14;39.79
30875;BME280;17581;43.222;27.924;2022-08-01T08:19:19;100071.06;;;27.21;39.29
30875;BME280;17581;43.222;27.924;2022-08-01T08:21:45;100079.66;;;27.25;39.35
30875;BME280;17581;43.222;27.924;2022-08-01T08:24:11;100066.56;;;27.32;39.33
30875;BME280;17581;43.222;27.924;2022-08-01T08:26:46;100073.50;;;27.46;39.61
30875;BME280;17581;43.222;27.924;2022-08-01T08:29:12;100061.22;;;27.42;39.14
30875;BME280;17581;43.222;27.924;2022-08-01T08:31:38;100077.53;;;27.55;38.93
30875;BME280;17581;43.222;27.924;2022-08-01T08:34:03;100077.84;;;27.58;39.06
30875;BME280;17581;43.222;27.924;2022-08-01T08:36:29;100071.81;;;27.62;38.82
30875;BME280;17581;43.222;27.924;2022-08-01T08:38:54;100069.69;;;27.64;38.89
30875;BME280;17581;43.222;27.924;2022-08-01T08:41:20;100064.00;;;27.70;38.18
30875;BME280;17581;43.222;27.924;2022-08-01T08:43:47;100066.84;;;27.75;38.30
30875;BME280;17581;43.222;27.924;2022-08-01T08:46:13;100077.72;;;27.98;37.98
30875;BME280;17581;43.222;27.924;2022-08-01T08:48:40;100078.91;;;28.02;37.08
30875;BME280;17581;43.222;27.924;2022-08-01T08:51:06;100053.94;;;27.97;37.24
30875;BME280;17581;43.222;27.924;2022-08-01T08:53:35;100066.19;;;28.18;37.11
30875;BME280;17581;43.222;27.924;2022-08-01T08:56:02;100075.38;;;28.24;37.20
30875;BME280;17581;43.222;27.924;2022-08-01T08:58:29;100060.31;;;28.15;36.67
30875;BME280;17581;43.222;27.924;2022-08-01T09:00:59;100061.06;;;28.27;37.29
30875;BME280;17581;43.222;27.924;2022-08-01T09:03:25;100053.94;;;28.31;36.87
30875;BME280;17581;43.222;27.924;2022-08-01T09:05:51;100069.66;;;28.47;36.46
30875;BME280;17581;43.222;27.924;2022-08-01T09:08:16;100060.41;;;28.58;36.69
30875;BME280;17581;43.222;27.924;2022-08-01T09:10:41;100063.06;;;28.70;36.67
30875;BME280;17581;43.222;27.924;2022-08-01T09:13:13;100053.59;;;28.87;36.70
30875;BME280;17581;43.222;27.924;2022-08-01T09:15:46;100059.91;;;29.04;36.33
30875;BME280;17581;43.222;27.924;2022-08-01T09:18:35;100048.41;;;29.17;35.62
30875;BME280;17581;43.222;27.924;2022-08-01T09:21:16;100057.72;;;29.28;35.91
30875;BME280;17581;43.222;27.924;2022-08-01T09:23:45;100053.78;;;29.24;35.71
30875;BME280;17581;43.222;27.924;2022-08-01T09:26:16;100047.72;;;29.27;35.02
30875;BME280;17581;43.222;27.924;2022-08-01T09:28:43;100048.50;;;29.23;33.94
30875;BME280;17581;43.222;27.924;2022-08-01T09:31:12;100044.88;;;29.22;34.03
30875;BME280;17581;43.222;27.924;2022-08-01T09:36:17;100040.69;;;29.20;34.57
30875;BME280;17581;43.222;27.924;2022-08-01T09:38:42;100044.94;;;29.27;34.13
30875;BME280;17581;43.222;27.924;2022-08-01T09:41:08;100039.72;;;29.31;34.35
30875;BME280;17581;43.222;27.924;2022-08-01T09:43:34;100033.81;;;29.49;35.04
30875;BME280;17581;43.222;27.924;2022-08-01T09:46:05;100033.06;;;29.58;33.85
30875;BME280;17581;43.222;27.924;2022-08-01T09:48:35;100028.38;;;29.59;34.35
30875;BME280;17581;43.222;27.924;2022-08-01T09:51:02;100024.25;;;29.66;34.68
30875;BME280;17581;43.222;27.924;2022-08-01T09:53:40;100014.41;;;29.81;33.40
30875;BME280;17581;43.222;27.924;2022-08-01T09:56:10;100034.50;;;29.93;32.46
30875;BME280;17581;43.222;27.924;2022-08-01T09:59:08;100045.06;;;29.96;32.37
30875;BME280;17581;43.222;27.924;2022-08-01T10:01:47;100037.63;;;30.01;32.36
30875;BME280;17581;43.222;27.924;2022-08-01T10:06:42;100045.97;;;30.06;32.32
30875;BME280;17581;43.222;27.924;2022-08-01T10:09:09;100037.63;;;30.01;31.92
30875;BME280;17581;43.222;27.924;2022-08-01T10:11:36;100039.66;;;30.16;32.08
30875;BME280;17581;43.222;27.924;2022-08-01T10:14:04;100027.19;;;30.18;31.84
30875;BME280;17581;43.222;27.924;2022-08-01T10:16:32;100035.59;;;30.34;31.38
30875;BME280;17581;43.222;27.924;2022-08-01T10:18:59;100038.44;;;30.39;31.17
30875;BME280;17581;43.222;27.924;2022-08-01T10:21:26;100017.91;;;30.40;31.92
30875;BME280;17581;43.222;27.924;2022-08-01T10:23:54;100033.66;;;30.76;32.04
30875;BME280;17581;43.222;27.924;2022-08-01T10:26:21;100027.28;;;30.86;30.73
30875;BME280;17581;43.222;27.924;2022-08-01T10:28:48;100029.28;;;30.95;30.50
30875;BME280;17581;43.222;27.924;2022-08-01T10:31:13;100043.66;;;30.82;30.85
30875;BME280;17581;43.222;27.924;2022-08-01T10:33:40;100038.69;;;30.89;31.20
30875;BME280;17581;43.222;27.924;2022-08-01T10:36:07;100018.94;;;30.81;31.64
30875;BME280;17581;43.222;27.924;2022-08-01T10:38:34;100038.22;;;31.02;31.41
30875;BME280;17581;43.222;27.924;2022-08-01T10:41:02;100033.50;;;31.08;31.28
30875;BME280;17581;43.222;27.924;2022-08-01T10:43:28;100036.56;;;31.11;30.89
30875;BME280;17581;43.222;27.924;2022-08-01T10:45:54;100028.22;;;31.06;31.17
30875;BME280;17581;43.222;27.924;2022-08-01T10:51:02;100038.13;;;30.92;31.26
30875;BME280;17581;43.222;27.924;2022-08-01T10:53:29;100035.00;;;30.73;31.35
30875;BME280;17581;43.222;27.924;2022-08-01T10:58:34;100023.81;;;30.53;31.65
30875;BME280;17581;43.222;27.924;2022-08-01T11:01:14;100027.75;;;30.62;31.93
30875;BME280;17581;43.222;27.924;2022-08-01T11:03:45;100024.19;;;30.77;31.81
30875;BME280;17581;43.222;27.924;2022-08-01T11:09:00;100026.97;;;30.72;30.92
30875;BME280;17581;43.222;27.924;2022-08-01T11:11:27;100025.50;;;30.54;31.53
30875;BME280;17581;43.222;27.924;2022-08-01T11:16:31;100024.41;;;30.60;31.86
30875;BME280;17581;43.222;27.924;2022-08-01T11:18:57;99998.31;;;30.61;31.23
30875;BME280;17581;43.222;27.924;2022-08-01T11:27:15;100020.19;;;31.10;30.02
30875;BME280;17581;43.222;27.924;2022-08-01T11:29:41;100020.44;;;31.13;30.01
30875;BME280;17581;43.222;27.924;2022-08-01T11:32:24;100021.03;;;31.15;29.95
30875;BME280;17581;43.222;27.924;2022-08-01T11:34:55;100006.00;;;31.16;29.95
30875;BME280;17581;43.222;27.924;2022-08-01T11:37:28;99997.69;;;31.21;30.25
30875;BME280;17581;43.222;27.924;2022-08-01T11:42:44;100005.22;;;31.36;29.69
30875;BME280;17581;43.222;27.924;2022-08-01T11:45:09;99998.81;;;31.36;30.18
30875;BME280;17581;43.222;27.924;2022-08-01T11:53:01;99999.38;;;31.33;30.64
30875;BME280;17581;43.222;27.924;2022-08-01T11:55:27;100002.69;;;31.35;30.77
30875;BME280;17581;43.222;27.924;2022-08-01T11:58:05;99999.09;;;31.39;30.95
30875;BME280;17581;43.222;27.924;2022-08-01T12:00:32;99999.97;;;31.50;30.59
30875;BME280;17581;43.222;27.924;2022-08-01T12:03:03;99998.03;;;31.60;30.28
30875;BME280;17581;43.222;27.924;2022-08-01T12:05:29;99998.31;;;31.69;29.63
30875;BME280;17581;43.222;27.924;2022-08-01T12:07:56;99996.66;;;31.68;30.04
30875;BME280;17581;43.222;27.924;2022-08-01T12:10:24;100003.84;;;31.84;29.30
30875;BME280;17581;43.222;27.924;2022-08-01T12:12:54;100001.06;;;32.14;29.83
30875;BME280;17581;43.222;27.924;2022-08-01T12:15:23;99984.09;;;32.26;28.83
30875;BME280;17581;43.222;27.924;2022-08-01T12:18:00;99994.06;;;32.27;28.92
30875;BME280;17581;43.222;27.924;2022-08-01T12:20:32;99989.91;;;32.34;28.81
30875;BME280;17581;43.222;27.924;2022-08-01T12:23:00;99996.81;;;32.42;28.93
30875;BME280;17581;43.222;27.924;2022-08-01T12:25:26;99980.38;;;32.56;28.69
30875;BME280;17581;43.222;27.924;2022-08-01T12:27:52;99988.94;;;32.74;28.05
30875;BME280;17581;43.222;27.924;2022-08-01T12:30:20;99985.34;;;32.69;27.96
30875;BME280;17581;43.222;27.924;2022-08-01T12:32:48;99993.19;;;32.47;28.23
30875;BME280;17581;43.222;27.924;2022-08-01T12:35:16;99981.53;;;32.34;28.10
30875;BME280;17581;43.222;27.924;2022-08-01T12:37:47;99979.94;;;32.08;28.04
30875;BME280;17581;43.222;27.924;2022-08-01T12:40:23;99976.06;;;31.89;28.16
30875;BME280;17581;43.222;27.924;2022-08-01T12:42:51;99968.25;;;31.91;28.52
30875;BME280;17581;43.222;27.924;2022-08-01T12:45:19;99973.00;;;32.11;29.04
30875;BME280;17581;43.222;27.924;2022-08-01T12:47:46;99979.31;;;32.31;29.34
30875;BME280;17581;43.222;27.924;2022-08-01T12:50:26;99963.41;;;32.42;28.26
30875;BME280;17581;43.222;27.924;2022-08-01T12:52:54;99968.41;;;32.45;28.42
30875;BME280;17581;43.222;27.924;2022-08-01T12:55:25;99975.34;;;32.63;28.95
30875;BME280;17581;43.222;27.924;2022-08-01T12:58:04;99961.91;;;32.75;28.21
30875;BME280;17581;43.222;27.924;2022-08-01T13:00:30;99973.03;;;32.80;28.23
30875;BME280;17581;43.222;27.924;2022-08-01T13:03:15;99959.63;;;32.87;28.29
30875;BME280;17581;43.222;27.924;2022-08-01T13:08:14;99961.53;;;32.92;27.91
30875;BME280;17581;43.222;27.924;2022-08-01T13:10:40;99958.69;;;32.97;27.93
30875;BME280;17581;43.222;27.924;2022-08-01T13:13:06;99936.94;;;33.09;28.08
30875;BME280;17581;43.222;27.924;2022-08-01T13:15:34;99941.31;;;33.20;27.71
30875;BME280;17581;43.222;27.924;2022-08-01T13:20:46;99945.56;;;33.46;27.56
30875;BME280;17581;43.222;27.924;2022-08-01T13:23:19;99954.66;;;33.62;27.09
30875;BME280;17581;43.222;27.924;2022-08-01T13:25:53;99954.56;;;33.72;27.30
30875;BME280;17581;43.222;27.924;2022-08-01T13:28:23;99945.03;;;33.78;27.36
30875;BME280;17581;43.222;27.924;2022-08-01T13:31:01;99945.97;;;33.92;26.83
30875;BME280;17581;43.222;27.924;2022-08-01T13:33:39;99948.44;;;33.99;27.29
30875;BME280;17581;43.222;27.924;2022-08-01T13:36:06;99950.50;;;33.88;26.75
30875;BME280;17581;43.222;27.924;2022-08-01T13:38:31;99948.91;;;33.82;26.66